createdAt,value
2023-01-08T00:01:57.151Z,11.35
2023-01-08T00:04:27.126Z,11.13
2023-01-08T00:06:57.200Z,11.06
2023-01-08T00:09:27.113Z,11.17
2023-01-08T00:11:57.080Z,11.10
2023-01-08T00:14:27.018Z,11.39
2023-01-08T00:16:59.736Z,11.42
2023-01-08T00:19:31.212Z,11.40
2023-01-08T00:22:01.226Z,11.12
2023-01-08T00:24:31.249Z,11.19
2023-01-08T00:27:01.175Z,11.06
2023-01-08T00:29:31.282Z,11.15
2023-01-08T00:32:03.785Z,11.05
2023-01-08T00:34:33.740Z,11.21
2023-01-08T00:37:03.699Z,10.99
2023-01-08T00:39:33.691Z,11.04
2023-01-08T00:42:03.604Z,11.30
2023-01-08T00:44:33.704Z,11.33
2023-01-08T00:47:06.281Z,11.28
2023-01-08T00:49:36.231Z,11.31
2023-01-08T00:52:07.694Z,11.30
2023-01-08T00:54:37.732Z,11.21
2023-01-08T00:57:07.673Z,11.22
2023-01-08T00:59:37.612Z,11.19
2023-01-08T01:02:10.485Z,11.14
2023-01-08T01:04:40.488Z,11.25
2023-01-08T01:07:10.441Z,11.19
2023-01-08T01:09:40.659Z,11.13
2023-01-08T01:12:11.339Z,11.17
2023-01-08T01:14:41.743Z,11.29
2023-01-08T01:17:15.028Z,11.40
2023-01-08T01:19:45.322Z,11.40
2023-01-08T01:22:15.402Z,11.14
2023-01-08T01:24:45.460Z,11.17
2023-01-08T01:27:15.756Z,10.77
2023-01-08T01:29:45.834Z,11.04
2023-01-08T01:32:18.868Z,11.21
2023-01-08T01:34:48.801Z,11.22
2023-01-08T01:37:18.896Z,11.10
2023-01-08T01:39:49.456Z,10.88
2023-01-08T01:42:33.240Z,11.00
2023-01-08T01:45:03.271Z,11.21
2023-01-08T01:47:39.382Z,11.10
2023-01-08T01:50:15.130Z,10.98
2023-01-08T01:52:49.181Z,10.87
2023-01-08T01:55:20.318Z,10.90
2023-01-08T01:57:56.082Z,10.85
2023-01-08T02:00:26.734Z,10.87
2023-01-08T02:03:00.136Z,10.95
2023-01-08T02:05:37.736Z,11.04
2023-01-08T02:08:13.061Z,11.07
2023-01-08T02:10:51.152Z,11.05
2023-01-08T02:13:26.200Z,10.69
2023-01-08T02:16:01.463Z,10.71
2023-01-08T02:18:41.252Z,10.80
2023-01-08T02:21:14.022Z,10.76
2023-01-08T02:23:49.859Z,10.76
2023-01-08T02:26:26.508Z,10.82
2023-01-08T02:29:01.204Z,10.55
2023-01-08T02:31:33.448Z,10.81
2023-01-08T02:34:03.532Z,10.74
2023-01-08T02:36:40.789Z,10.61
2023-01-08T02:39:19.574Z,10.54
2023-01-08T02:41:59.795Z,10.76
2023-01-08T02:44:38.262Z,10.88
2023-01-08T02:47:15.057Z,10.65
2023-01-08T02:49:48.459Z,10.72
2023-01-08T02:52:20.958Z,10.65
2023-01-08T02:54:51.692Z,10.67
2023-01-08T02:57:24.779Z,10.61
2023-01-08T02:59:55.673Z,10.72
2023-01-08T03:02:26.162Z,10.83
2023-01-08T03:05:00.790Z,10.88
2023-01-08T03:07:30.704Z,10.92
2023-01-08T03:10:01.021Z,10.86
2023-01-08T03:12:46.875Z,10.73
2023-01-08T03:15:25.530Z,10.58
2023-01-08T03:18:00.311Z,10.54
2023-01-08T03:20:31.293Z,10.55
2023-01-08T03:23:06.011Z,10.55
2023-01-08T03:25:40.010Z,10.52
2023-01-08T03:28:17.001Z,10.53
2023-01-08T03:30:48.803Z,10.62
2023-01-08T03:33:23.131Z,10.68
2023-01-08T03:35:56.635Z,10.65
2023-01-08T03:38:30.206Z,10.50
2023-01-08T03:41:04.620Z,10.53
2023-01-08T03:43:37.231Z,10.54
2023-01-08T03:46:13.068Z,10.60
2023-01-08T03:48:44.089Z,10.42
2023-01-08T03:51:14.318Z,10.42
2023-01-08T03:53:44.224Z,10.44
2023-01-08T03:56:14.242Z,10.40
2023-01-08T03:58:47.012Z,10.37
2023-01-08T04:01:17.069Z,10.38
2023-01-08T04:03:47.208Z,10.38
2023-01-08T04:06:17.121Z,10.33
2023-01-08T04:08:49.970Z,10.30
2023-01-08T04:11:20.094Z,10.34
2023-01-08T04:13:52.615Z,10.17
2023-01-08T04:16:25.408Z,10.25
2023-01-08T04:18:55.382Z,10.20
2023-01-08T04:21:25.341Z,10.27
2023-01-08T04:23:55.287Z,10.33
2023-01-08T04:26:25.276Z,10.30
2023-01-08T04:28:57.811Z,10.41
2023-01-08T04:31:27.800Z,10.33
2023-01-08T04:33:57.847Z,10.29
2023-01-08T04:36:27.776Z,10.21
2023-01-08T04:38:58.802Z,10.15
2023-01-08T04:41:28.745Z,10.28
2023-01-08T04:44:01.335Z,10.38
2023-01-08T04:46:31.286Z,10.41
2023-01-08T04:49:01.378Z,10.44
2023-01-08T04:51:31.442Z,10.42
2023-01-08T04:54:01.380Z,10.50
2023-01-08T04:56:31.410Z,10.56
2023-01-08T04:59:04.096Z,10.56
2023-01-08T05:01:34.097Z,10.48
2023-01-08T05:04:06.196Z,10.50
2023-01-08T05:06:36.672Z,10.44
2023-01-08T05:09:06.950Z,10.43
2023-01-08T05:11:37.444Z,10.33
2023-01-08T05:14:09.956Z,10.32
2023-01-08T05:16:39.898Z,10.38
2023-01-08T05:19:10.030Z,10.46
2023-01-08T05:21:40.139Z,10.39
2023-01-08T05:24:10.559Z,10.44
2023-01-08T05:26:40.652Z,10.53
2023-01-08T05:29:13.255Z,10.58
2023-01-08T05:31:43.252Z,10.61
2023-01-08T05:34:13.199Z,10.52
2023-01-08T05:36:46.017Z,10.54
2023-01-08T05:39:15.953Z,10.52
2023-01-08T05:41:45.966Z,10.32
2023-01-08T05:44:18.563Z,10.31
2023-01-08T05:46:48.661Z,10.42
2023-01-08T05:49:18.620Z,10.35
2023-01-08T05:51:48.611Z,10.26
2023-01-08T05:54:18.652Z,10.25
2023-01-08T05:56:48.566Z,10.23
2023-01-08T05:59:21.080Z,10.32
2023-01-08T06:01:52.146Z,10.30
2023-01-08T06:04:22.236Z,10.42
2023-01-08T06:06:54.575Z,10.38
2023-01-08T06:09:24.523Z,10.40
2023-01-08T06:11:58.071Z,10.40
2023-01-08T06:14:30.681Z,10.35
2023-01-08T06:17:00.599Z,10.37
2023-01-08T06:19:30.602Z,10.20
2023-01-08T06:22:00.530Z,10.30
2023-01-08T06:24:30.489Z,10.32
2023-01-08T06:27:05.534Z,10.40
2023-01-08T06:29:38.049Z,10.36
2023-01-08T06:32:08.302Z,10.44
2023-01-08T06:34:38.207Z,10.50
2023-01-08T06:37:08.125Z,10.56
2023-01-08T06:39:38.051Z,10.55
2023-01-08T06:42:08.030Z,10.53
2023-01-08T06:44:43.351Z,10.51
2023-01-08T06:47:13.296Z,10.54
2023-01-08T06:49:43.220Z,10.55
2023-01-08T06:52:13.888Z,10.43
2023-01-08T06:54:47.867Z,10.38
2023-01-08T06:57:20.790Z,10.29
2023-01-08T06:59:53.396Z,10.28
2023-01-08T07:02:25.516Z,10.22
2023-01-08T07:05:18.973Z,10.17
2023-01-08T07:07:48.946Z,10.25
2023-01-08T07:10:20.268Z,10.34
2023-01-08T07:12:50.502Z,10.34
2023-01-08T07:15:23.189Z,10.38
2023-01-08T07:17:53.087Z,10.52
2023-01-08T07:20:23.046Z,10.51
2023-01-08T07:22:52.974Z,10.35
2023-01-08T07:25:24.673Z,10.44
2023-01-08T07:27:55.779Z,10.44
2023-01-08T07:30:30.494Z,10.30
2023-01-08T07:33:09.704Z,10.29
2023-01-08T07:35:39.773Z,10.01
2023-01-08T07:38:09.749Z,10.17
2023-01-08T07:40:39.733Z,10.25
2023-01-08T07:43:50.147Z,10.18
2023-01-08T07:46:25.795Z,10.20
2023-01-08T07:48:55.797Z,10.02
2023-01-08T07:51:26.317Z,10.13
2023-01-08T07:53:56.475Z,10.13
2023-01-08T07:56:27.566Z,10.12
2023-01-08T07:58:57.489Z,10.22
2023-01-08T08:01:30.193Z,10.22
2023-01-08T08:04:03.300Z,10.33
2023-01-08T08:06:33.259Z,10.25
2023-01-08T08:09:03.828Z,10.43
2023-01-08T08:11:33.791Z,10.30
2023-01-08T08:14:03.774Z,10.18
2023-01-08T08:16:36.603Z,10.23
2023-01-08T08:19:08.867Z,10.45
2023-01-08T08:21:38.794Z,10.45
2023-01-08T08:24:09.476Z,10.26
2023-01-08T08:26:39.433Z,10.32
2023-01-08T08:29:09.405Z,10.52
2023-01-08T08:31:42.780Z,10.45
2023-01-08T08:34:12.843Z,10.38
2023-01-08T08:36:42.913Z,10.38
2023-01-08T08:39:12.840Z,10.32
2023-01-08T08:41:42.883Z,10.37
2023-01-08T08:44:12.886Z,10.56
2023-01-08T08:46:45.552Z,10.68
2023-01-08T08:49:15.605Z,10.54
2023-01-08T08:51:45.555Z,10.76
2023-01-08T08:54:15.692Z,10.82
2023-01-08T08:56:45.616Z,10.73
2023-01-08T08:59:15.836Z,10.84
2023-01-08T09:01:48.820Z,10.98
2023-01-08T09:04:18.787Z,10.99
2023-01-08T09:06:48.709Z,10.89
2023-01-08T09:09:18.693Z,10.65
2023-01-08T09:11:48.594Z,10.63
2023-01-08T09:14:18.620Z,10.61
2023-01-08T09:16:51.713Z,10.69
2023-01-08T09:19:26.870Z,10.87
2023-01-08T09:21:56.793Z,10.95
2023-01-08T09:24:32.354Z,10.99
2023-01-08T09:27:02.453Z,11.09
2023-01-08T09:29:33.618Z,11.22
2023-01-08T09:32:08.564Z,11.26
2023-01-08T09:34:38.902Z,10.99
2023-01-08T09:37:09.293Z,11.03
2023-01-08T09:39:41.133Z,10.78
2023-01-08T09:42:18.749Z,10.81
2023-01-08T09:44:51.931Z,10.95
2023-01-08T09:47:30.491Z,11.01
2023-01-08T09:50:04.288Z,10.92
2023-01-08T09:52:35.449Z,10.72
2023-01-08T09:55:05.476Z,10.98
2023-01-08T09:57:36.348Z,10.92
2023-01-08T10:00:07.216Z,10.93
2023-01-08T10:02:45.508Z,11.01
2023-01-08T10:05:17.223Z,11.02
2023-01-08T10:07:48.560Z,11.00
2023-01-08T10:10:22.141Z,10.84
2023-01-08T10:12:53.385Z,10.98
2023-01-08T10:15:27.994Z,11.10
2023-01-08T10:18:05.738Z,10.91
2023-01-08T10:20:37.747Z,11.02
2023-01-08T10:23:15.765Z,10.99
2023-01-08T10:25:55.057Z,10.99
2023-01-08T10:28:27.149Z,10.98
2023-01-08T10:31:02.693Z,10.93
2023-01-08T10:33:43.668Z,10.93
2023-01-08T10:36:17.246Z,10.87
2023-01-08T10:39:12.866Z,11.02
2023-01-08T10:41:44.166Z,11.07
2023-01-08T10:44:19.629Z,11.08
2023-01-08T10:46:52.888Z,10.76
2023-01-08T10:49:33.311Z,10.76
2023-01-08T10:52:03.619Z,10.74
2023-01-08T10:54:42.208Z,10.98
2023-01-08T10:57:24.533Z,10.96
2023-01-08T10:59:54.686Z,10.96
2023-01-08T11:02:32.843Z,10.99
2023-01-08T11:05:07.609Z,10.98
2023-01-08T11:07:40.092Z,10.98
2023-01-08T11:10:24.680Z,10.81
2023-01-08T11:12:58.992Z,10.86
2023-01-08T11:15:35.832Z,10.95
2023-01-08T11:18:14.343Z,10.91
2023-01-08T11:20:48.852Z,10.96
2023-01-08T11:23:22.225Z,10.75
2023-01-08T11:25:58.994Z,10.85
2023-01-08T11:28:36.164Z,11.09
2023-01-08T11:31:16.668Z,10.94
2023-01-08T11:33:48.109Z,11.14
2023-01-08T11:36:28.084Z,11.17
2023-01-08T11:38:58.029Z,11.16
2023-01-08T11:41:43.015Z,11.26
2023-01-08T11:44:23.015Z,11.24
2023-01-08T11:47:04.226Z,11.18
2023-01-08T11:50:00.924Z,10.94
2023-01-08T11:52:44.490Z,10.94
2023-01-08T11:55:30.329Z,10.83
2023-01-08T11:58:17.258Z,10.74
2023-01-08T12:01:03.568Z,11.03
2023-01-08T12:03:39.499Z,11.09
2023-01-08T12:06:22.959Z,10.87
2023-01-08T12:09:05.469Z,10.86
2023-01-08T12:11:44.202Z,11.01
2023-01-08T12:14:37.747Z,10.88
2023-01-08T12:17:24.805Z,10.91
2023-01-08T12:20:06.522Z,10.93
2023-01-08T12:22:45.809Z,10.88
2023-01-08T12:25:40.775Z,10.81
2023-01-08T12:28:24.619Z,11.12
2023-01-08T12:31:12.897Z,11.23
2023-01-08T12:33:47.279Z,11.19
2023-01-08T12:36:21.712Z,11.19
2023-01-08T12:38:57.884Z,11.14
2023-01-08T12:41:31.952Z,11.01
2023-01-08T12:44:05.492Z,11.31
2023-01-08T12:46:37.942Z,11.39
2023-01-08T12:49:09.674Z,11.24
2023-01-08T12:51:46.333Z,10.92
2023-01-08T12:54:26.652Z,11.14
2023-01-08T12:57:10.141Z,10.95
2023-01-08T12:59:49.029Z,11.06
2023-01-08T13:02:39.057Z,11.02
2023-01-08T13:05:34.752Z,11.13
2023-01-08T13:08:07.506Z,11.27
2023-01-08T13:10:45.803Z,11.01
2023-01-08T13:13:30.964Z,11.12
2023-01-08T13:16:12.136Z,11.29
2023-01-08T13:18:42.935Z,11.14
2023-01-08T13:21:14.758Z,11.28
2023-01-08T13:23:44.731Z,11.24
2023-01-08T13:26:15.025Z,11.37
2023-01-08T13:28:48.339Z,11.36
2023-01-08T13:31:30.043Z,11.08
2023-01-08T13:34:02.415Z,11.21
2023-01-08T13:36:33.051Z,11.16
2023-01-08T13:39:06.535Z,11.22
2023-01-08T13:41:40.142Z,11.36
2023-01-08T13:44:25.515Z,11.26
2023-01-08T13:46:58.064Z,11.28
2023-01-08T13:49:32.018Z,11.24
2023-01-08T13:52:02.448Z,11.45
2023-01-08T13:54:40.405Z,11.34
2023-01-08T13:57:18.039Z,11.10
2023-01-08T13:59:57.433Z,11.11
2023-01-08T14:02:32.268Z,11.16
2023-01-08T14:05:05.061Z,10.93
2023-01-08T14:07:36.214Z,11.00
2023-01-08T14:10:11.918Z,11.07
2023-01-08T14:12:42.802Z,10.98
2023-01-08T14:15:24.920Z,10.94
2023-01-08T14:18:04.135Z,11.09
2023-01-08T14:20:36.932Z,10.92
2023-01-08T14:23:14.831Z,10.80
2023-01-08T14:25:45.358Z,10.74
2023-01-08T14:28:20.515Z,10.73
2023-01-08T14:30:54.604Z,10.85
2023-01-08T14:33:27.735Z,10.77
2023-01-08T14:35:59.113Z,10.91
2023-01-08T14:38:29.370Z,10.92
2023-01-08T14:41:05.550Z,10.90
2023-01-08T14:43:38.286Z,10.83
2023-01-08T14:46:18.167Z,10.69
2023-01-08T14:48:49.708Z,10.82
2023-01-08T14:51:26.274Z,11.02
2023-01-08T14:54:00.653Z,11.08
2023-01-08T14:56:34.613Z,11.12
2023-01-08T14:59:11.195Z,11.13
2023-01-08T15:01:44.056Z,11.24
2023-01-08T15:04:19.984Z,11.12
2023-01-08T15:06:50.624Z,10.94
2023-01-08T15:09:25.893Z,11.01
2023-01-08T15:11:58.277Z,10.95
2023-01-08T15:14:33.689Z,11.04
2023-01-08T15:17:12.510Z,11.13
2023-01-08T15:19:52.214Z,11.17
2023-01-08T15:22:26.076Z,11.10
2023-01-08T15:25:01.110Z,10.78
2023-01-08T15:27:37.077Z,10.90
2023-01-08T15:30:10.103Z,10.92
2023-01-08T15:32:42.757Z,11.01
2023-01-08T15:35:17.365Z,11.07
2023-01-08T15:37:50.181Z,10.93
2023-01-08T15:40:23.676Z,11.04
2023-01-08T15:43:09.227Z,10.83
2023-01-08T15:45:41.068Z,10.93
2023-01-08T15:48:17.472Z,10.90
2023-01-08T15:50:53.838Z,10.48
2023-01-08T15:53:25.144Z,10.64
2023-01-08T15:55:55.676Z,10.76
2023-01-08T15:58:25.897Z,10.88
2023-01-08T16:00:57.517Z,10.87
2023-01-08T16:03:30.770Z,10.96
2023-01-08T16:06:00.821Z,11.03
2023-01-08T16:08:31.221Z,10.95
2023-01-08T16:11:01.679Z,11.06
2023-01-08T16:13:31.809Z,11.10
2023-01-08T16:16:10.062Z,10.99
2023-01-08T16:18:43.460Z,11.00
2023-01-08T16:21:14.281Z,10.84
2023-01-08T16:23:44.848Z,10.85
2023-01-08T16:26:16.949Z,11.04
2023-01-08T16:28:46.885Z,11.02
2023-01-08T16:31:17.353Z,11.14
2023-01-08T16:33:50.047Z,11.05
2023-01-08T16:36:23.784Z,11.10
2023-01-08T16:38:56.176Z,11.12
2023-01-08T16:41:26.173Z,11.19
2023-01-08T16:43:56.353Z,11.21
2023-01-08T16:46:27.195Z,11.22
2023-01-08T16:49:03.089Z,11.26
2023-01-08T16:51:36.180Z,11.23
2023-01-08T16:54:15.819Z,10.99
2023-01-08T16:56:48.816Z,11.15
2023-01-08T16:59:23.661Z,11.20
2023-01-08T17:02:00.421Z,11.16
2023-01-08T17:04:41.081Z,11.11
2023-01-08T17:07:20.666Z,11.14
2023-01-08T17:09:50.819Z,11.13
2023-01-08T17:12:22.575Z,11.09
2023-01-08T17:14:57.109Z,11.15
2023-01-08T17:17:32.880Z,11.07
2023-01-08T17:20:12.595Z,11.01
2023-01-08T17:22:46.073Z,11.03
2023-01-08T17:25:16.041Z,10.96
2023-01-08T17:27:54.001Z,10.89
2023-01-08T17:30:34.911Z,11.09
2023-01-08T17:33:10.078Z,11.08
2023-01-08T17:35:43.100Z,11.17
2023-01-08T17:38:16.631Z,11.06
2023-01-08T17:41:11.051Z,11.05
2023-01-08T17:43:44.280Z,11.09
2023-01-08T17:46:17.427Z,11.10
2023-01-08T17:48:49.801Z,11.03
2023-01-08T17:51:23.311Z,10.85
2023-01-08T17:53:58.262Z,10.78
2023-01-08T17:56:31.443Z,10.77
2023-01-08T17:59:04.287Z,10.79
2023-01-08T18:01:39.134Z,10.92
2023-01-08T18:04:13.445Z,10.88
2023-01-08T18:06:51.694Z,10.92
2023-01-08T18:09:25.297Z,10.85
2023-01-08T18:11:58.078Z,10.82
2023-01-08T18:14:35.217Z,10.71
2023-01-08T18:17:07.062Z,10.65
2023-01-08T18:19:37.414Z,10.71
2023-01-08T18:22:10.441Z,10.61
2023-01-08T18:24:40.911Z,10.58
2023-01-08T18:27:15.407Z,10.57
2023-01-08T18:29:55.164Z,10.65
2023-01-08T18:32:30.668Z,10.41
2023-01-08T18:35:06.533Z,10.48
2023-01-08T18:37:42.352Z,10.61
2023-01-08T18:40:16.316Z,10.54
2023-01-08T18:42:46.652Z,10.42
2023-01-08T18:45:30.043Z,10.37
2023-01-08T18:48:04.795Z,10.27
2023-01-08T18:50:43.900Z,10.30
2023-01-08T18:53:16.720Z,10.46
2023-01-08T18:55:46.899Z,10.45
2023-01-08T18:58:16.955Z,10.52
2023-01-08T19:00:46.970Z,10.37
2023-01-08T19:03:16.983Z,10.38
2023-01-08T19:05:47.169Z,10.44
2023-01-08T19:08:20.011Z,10.54
2023-01-08T19:10:55.329Z,10.53
2023-01-08T19:13:25.339Z,10.46
2023-01-08T19:16:05.105Z,10.41
2023-01-08T19:18:36.009Z,10.54
2023-01-08T19:21:08.640Z,10.46
2023-01-08T19:23:43.911Z,10.34
2023-01-08T19:26:17.429Z,10.22
2023-01-08T19:28:50.659Z,10.28
2023-01-08T19:31:21.796Z,10.28
2023-01-08T19:33:52.933Z,10.34
2023-01-08T19:36:23.220Z,10.32
2023-01-08T19:38:58.025Z,10.38
2023-01-08T19:41:42.828Z,10.16
2023-01-08T19:44:19.920Z,10.25
2023-01-08T19:46:50.440Z,10.15
2023-01-08T19:49:21.110Z,10.07
2023-01-08T19:51:55.943Z,10.01
2023-01-08T19:54:32.924Z,9.86
2023-01-08T19:57:05.983Z,10.11
2023-01-08T19:59:39.352Z,10.25
2023-01-08T20:02:13.821Z,10.26
2023-01-08T20:04:50.580Z,10.16
2023-01-08T20:07:22.594Z,10.06
2023-01-08T20:09:55.350Z,10.30
2023-01-08T20:12:25.839Z,10.33
2023-01-08T20:14:56.219Z,10.24
2023-01-08T20:17:32.664Z,10.15
2023-01-08T20:20:02.998Z,10.21
2023-01-08T20:22:42.119Z,10.13
2023-01-08T20:25:23.984Z,10.27
2023-01-08T20:27:57.595Z,10.16
2023-01-08T20:30:30.364Z,10.14
2023-01-08T20:33:06.074Z,10.20
2023-01-08T20:35:39.214Z,10.17
2023-01-08T20:38:11.436Z,10.22
2023-01-08T20:40:49.652Z,10.17
2023-01-08T20:43:28.013Z,10.16
2023-01-08T20:45:58.097Z,10.25
2023-01-08T20:48:29.999Z,10.15
2023-01-08T20:51:04.002Z,10.17
2023-01-08T20:53:36.394Z,10.13
2023-01-08T20:56:11.425Z,10.06
2023-01-08T20:58:43.612Z,10.13
2023-01-08T21:01:15.558Z,10.01
2023-01-08T21:03:46.658Z,10.06
2023-01-08T21:06:19.175Z,9.94
2023-01-08T21:08:51.438Z,9.89
2023-01-08T21:11:24.670Z,9.88
2023-01-08T21:13:54.991Z,9.99
2023-01-08T21:16:28.438Z,9.73
2023-01-08T21:18:59.864Z,9.49
2023-01-08T21:21:32.949Z,9.57
2023-01-08T21:24:05.539Z,9.75
2023-01-08T21:26:39.373Z,9.77
2023-01-08T21:29:10.687Z,9.66
2023-01-08T21:31:41.462Z,9.82
2023-01-08T21:34:13.996Z,9.73
2023-01-08T21:36:44.125Z,9.85
2023-01-08T21:39:14.288Z,9.86
2023-01-08T21:41:59.280Z,9.82
2023-01-08T21:44:42.116Z,9.99
2023-01-08T21:47:14.385Z,9.81
2023-01-08T21:49:45.055Z,9.80
2023-01-08T21:52:27.584Z,9.76
2023-01-08T21:54:58.280Z,9.82
2023-01-08T21:57:31.251Z,9.40
2023-01-08T22:00:01.167Z,9.69
2023-01-08T22:02:31.333Z,9.73
2023-01-08T22:05:02.298Z,9.90
2023-01-08T22:07:32.455Z,9.86
2023-01-08T22:10:03.660Z,9.95
2023-01-08T22:12:37.828Z,10.05
2023-01-08T22:15:09.763Z,10.05
2023-01-08T22:17:39.732Z,10.14
2023-01-08T22:20:10.677Z,10.15
2023-01-08T22:22:41.325Z,10.05
2023-01-08T22:25:12.036Z,9.95
2023-01-08T22:27:46.689Z,9.96
2023-01-08T22:30:16.866Z,9.90
2023-01-08T22:32:46.921Z,9.85
2023-01-08T22:35:17.106Z,9.87
2023-01-08T22:37:47.270Z,9.77
2023-01-08T22:40:17.343Z,9.54
2023-01-08T22:42:50.021Z,9.70
2023-01-08T22:45:20.219Z,9.84
2023-01-08T22:47:50.105Z,9.94
2023-01-08T22:50:20.374Z,9.88
2023-01-08T22:52:50.459Z,9.85
2023-01-08T22:55:20.759Z,9.71
2023-01-08T22:57:54.585Z,9.72
2023-01-08T23:00:25.071Z,9.49
2023-01-08T23:02:55.080Z,9.62
2023-01-08T23:05:25.111Z,9.67
2023-01-08T23:07:55.056Z,9.62
2023-01-08T23:10:25.037Z,9.70
2023-01-08T23:12:57.951Z,9.89
2023-01-08T23:15:27.988Z,9.94
2023-01-08T23:17:57.908Z,9.75
2023-01-08T23:20:27.840Z,9.85
2023-01-08T23:22:57.808Z,9.61
2023-01-08T23:25:30.101Z,9.76
2023-01-08T23:28:02.673Z,9.81
2023-01-08T23:30:32.908Z,9.68
2023-01-08T23:33:02.995Z,9.71
2023-01-08T23:35:33.062Z,9.66
2023-01-08T23:38:03.229Z,9.59
2023-01-08T23:40:33.323Z,9.50
2023-01-08T23:43:06.223Z,9.46
2023-01-08T23:45:37.970Z,9.52
2023-01-08T23:48:09.058Z,9.50
2023-01-08T23:50:39.435Z,9.52
2023-01-08T23:53:09.502Z,9.54
2023-01-08T23:55:39.462Z,9.39
2023-01-08T23:58:12.286Z,9.35
